Time;durP1;ratioP1;P1;durP2;ratioP2;P2;SDS_P1;SDS_P2;PMS_P1;PMS_P2;Temp;Humidity;BMP_temperature;BMP_pressure;BME280_temperature;BME280_humidity;BME280_pressure;Samples;Min_cycle;Max_cycle;Signal;HPM_P1;HPM_P2
2023/06/17 00:00:32;;;;;;;2.92;2.00;;;25.90;40.70;;;;;;5036999;28;20461;-68
2023/06/17 00:02:57;;;;;;;3.28;2.10;;;26.00;41.30;;;;;;5037122;28;20025;-68
2023/06/17 00:05:26;;;;;;;2.60;1.90;;;26.00;40.70;;;;;;5034459;28;20033;-69
2023/06/17 00:07:52;;;;;;;2.72;1.80;;;25.90;40.70;;;;;;5034763;28;20038;-69
2023/06/17 00:10:18;;;;;;;2.70;1.90;;;26.00;40.80;;;;;;5036593;28;20511;-68
2023/06/17 00:12:44;;;;;;;2.88;1.90;;;26.00;40.80;;;;;;5037061;28;20440;-66
2023/06/17 00:15:10;;;;;;;2.70;1.90;;;26.00;40.80;;;;;;5036916;28;20151;-67
2023/06/17 00:17:36;;;;;;;2.67;2.05;;;26.00;41.40;;;;;;5033463;28;20025;-67
2023/06/17 00:20:07;;;;;;;3.03;2.00;;;26.00;40.80;;;;;;5037114;28;20425;-67
2023/06/17 00:22:34;;;;;;;2.90;1.90;;;26.10;40.90;;;;;;5036093;28;20024;-66
2023/06/17 00:25:00;;;;;;;2.22;1.70;;;26.10;40.90;;;;;;5036255;28;20385;-68
2023/06/17 00:27:26;;;;;;;2.20;1.80;;;26.10;40.90;;;;;;5035741;28;20041;-69
2023/06/17 00:29:52;;;;;;;2.40;1.80;;;26.10;40.90;;;;;;5034503;28;20119;-69
2023/06/17 00:32:18;;;;;;;2.85;2.15;;;26.10;40.90;;;;;;5034049;28;20033;-68
2023/06/17 00:34:44;;;;;;;2.63;1.90;;;26.10;40.90;;;;;;5036017;28;20029;-68
2023/06/17 00:37:09;;;;;;;2.33;1.80;;;26.20;41.00;;;;;;5029586;28;20056;-68
2023/06/17 00:39:35;;;;;;;3.60;1.92;;;26.10;41.00;;;;;;5037103;28;20465;-68
2023/06/17 00:42:01;;;;;;;2.60;1.80;;;26.10;40.90;;;;;;5036441;28;20022;-67
2023/06/17 00:44:27;;;;;;;3.03;2.00;;;26.20;41.00;;;;;;5035864;28;20087;-68
2023/06/17 00:46:55;;;;;;;3.03;1.95;;;26.20;41.00;;;;;;5037158;28;20029;-68
2023/06/17 00:49:28;;;;;;;3.10;1.90;;;26.20;41.00;;;;;;5031647;28;20105;-67
2023/06/17 00:51:54;;;;;;;2.50;1.80;;;26.20;41.10;;;;;;5033061;28;20550;-67
2023/06/17 00:54:20;;;;;;;2.53;1.70;;;26.20;41.00;;;;;;5035934;28;20029;-67
2023/06/17 00:56:46;;;;;;;2.55;1.70;;;26.20;40.90;;;;;;5034766;28;20048;-68
2023/06/17 00:59:12;;;;;;;2.78;1.70;;;26.20;41.00;;;;;;5034996;28;20474;-68
2023/06/17 01:01:37;;;;;;;2.40;1.80;;;26.30;41.00;;;;;;5036879;28;20083;-68
2023/06/17 01:04:06;;;;;;;2.28;1.80;;;26.30;41.10;;;;;;5031693;28;20455;-68
2023/06/17 01:06:52;;;;;;;2.88;1.80;;;26.20;41.00;;;;;;5029253;28;20060;-68
2023/06/17 01:09:21;;;;;;;2.42;1.90;;;26.30;41.00;;;;;;5031675;28;20684;-69
2023/06/17 01:11:51;;;;;;;3.50;1.77;;;26.30;41.00;;;;;;5030021;28;20030;-69
2023/06/17 01:14:17;;;;;;;2.38;1.90;;;26.30;41.00;;;;;;5017515;28;20109;-69
2023/06/17 01:16:43;;;;;;;2.58;1.90;;;26.30;41.00;;;;;;5033777;28;20400;-69
2023/06/17 01:19:18;;;;;;;2.63;1.80;;;26.30;41.10;;;;;;5032952;28;20087;-68
2023/06/17 01:21:54;;;;;;;3.20;2.05;;;26.30;41.10;;;;;;5031309;28;20523;-67
2023/06/17 01:24:29;;;;;;;2.30;1.75;;;26.30;41.00;;;;;;5037561;28;20346;-67
2023/06/17 01:26:57;;;;;;;2.38;1.77;;;26.30;41.00;;;;;;5033960;28;20028;-68
2023/06/17 01:29:29;;;;;;;2.40;1.80;;;26.30;40.90;;;;;;5032113;28;20079;-69
2023/06/17 01:31:57;;;;;;;2.45;1.88;;;26.30;40.90;;;;;;5032047;28;20107;-68
2023/06/17 01:34:42;;;;;;;2.70;2.08;;;26.30;41.00;;;;;;5032864;28;20036;-68
2023/06/17 01:37:11;;;;;;;2.30;1.65;;;26.30;41.00;;;;;;5032920;28;20178;-68
2023/06/17 01:39:42;;;;;;;3.92;1.73;;;26.40;41.10;;;;;;5032383;28;20022;-68
2023/06/17 01:42:18;;;;;;;2.35;1.73;;;26.30;41.00;;;;;;5031163;28;20044;-70
2023/06/17 01:44:46;;;;;;;2.85;1.70;;;26.40;41.00;;;;;;5033078;28;20044;-69
2023/06/17 01:47:12;;;;;;;2.70;1.85;;;26.40;41.00;;;;;;5035779;28;20547;-68
2023/06/17 01:49:37;;;;;;;2.50;1.77;;;26.40;41.00;;;;;;5033651;28;20138;-68
2023/06/17 01:52:04;;;;;;;1.98;1.50;;;26.40;41.00;;;;;;5032775;28;20029;-68
2023/06/17 01:54:30;;;;;;;2.97;1.83;;;26.40;41.00;;;;;;5034683;28;20017;-68
2023/06/17 01:56:55;;;;;;;3.28;1.80;;;26.40;41.00;;;;;;5018187;28;20353;-68
2023/06/17 01:59:21;;;;;;;1.48;1.25;;;26.40;41.00;;;;;;5035034;28;20037;-70
2023/06/17 02:01:47;;;;;;;1.90;1.40;;;26.40;41.00;;;;;;5036350;28;20108;-66
2023/06/17 02:04:12;;;;;;;2.28;1.40;;;26.40;41.00;;;;;;5037651;28;20488;-66
2023/06/17 02:06:39;;;;;;;1.60;1.27;;;26.40;41.00;;;;;;5020884;28;20127;-66
2023/06/17 02:09:05;;;;;;;2.10;1.60;;;26.40;41.00;;;;;;5038358;28;20495;-65
2023/06/17 02:11:31;;;;;;;1.83;1.40;;;26.40;41.00;;;;;;5021424;28;20388;-66
2023/06/17 02:13:57;;;;;;;2.08;1.58;;;26.40;41.00;;;;;;5043762;28;20035;-66
2023/06/17 02:16:23;;;;;;;2.08;1.45;;;26.40;40.90;;;;;;5042620;28;20029;-66
2023/06/17 02:18:53;;;;;;;2.10;1.50;;;26.30;40.90;;;;;;5006482;28;20477;-66
2023/06/17 02:21:18;;;;;;;2.00;1.63;;;26.40;41.00;;;;;;5038418;28;20055;-66
2023/06/17 02:23:48;;;;;;;1.77;1.30;;;26.40;41.50;;;;;;5041490;28;20053;-66
2023/06/17 02:26:16;;;;;;;1.80;1.40;;;26.30;40.90;;;;;;5040356;28;20052;-66
2023/06/17 02:28:42;;;;;;;2.25;1.40;;;26.30;40.90;;;;;;5037334;28;20536;-66
2023/06/17 02:31:08;;;;;;;2.10;1.40;;;26.30;40.90;;;;;;5038732;28;20143;-66
2023/06/17 02:33:34;;;;;;;2.08;1.50;;;26.30;40.90;;;;;;5037977;28;20080;-66
2023/06/17 02:36:00;;;;;;;2.20;1.50;;;26.30;40.90;;;;;;5039698;28;20044;-66
2023/06/17 02:38:26;;;;;;;2.47;1.40;;;26.30;40.90;;;;;;5036287;28;20037;-66
2023/06/17 02:40:52;;;;;;;1.73;1.40;;;26.30;40.90;;;;;;5038128;28;20471;-66
2023/06/17 02:43:17;;;;;;;1.90;1.38;;;26.30;40.80;;;;;;5035532;28;20025;-65
2023/06/17 02:45:43;;;;;;;1.75;1.33;;;26.30;40.90;;;;;;5035553;28;20034;-65
2023/06/17 02:48:09;;;;;;;2.30;1.42;;;26.30;40.90;;;;;;5034781;28;20030;-66
2023/06/17 02:50:35;;;;;;;1.85;1.40;;;26.20;40.80;;;;;;5037804;28;20041;-66
2023/06/17 02:53:04;;;;;;;2.15;1.48;;;26.20;40.80;;;;;;5037690;28;20095;-66
2023/06/17 02:55:29;;;;;;;2.15;1.50;;;26.20;40.80;;;;;;5037137;28;20048;-66
2023/06/17 02:57:55;;;;;;;1.95;1.42;;;26.10;40.80;;;;;;5035916;28;20029;-66
2023/06/17 03:00:21;;;;;;;1.80;1.40;;;26.20;40.90;;;;;;5004487;28;20060;-65
2023/06/17 03:02:48;;;;;;;1.77;1.40;;;26.20;40.90;;;;;;5035512;28;20026;-66
2023/06/17 03:05:14;;;;;;;1.52;1.20;;;26.10;40.80;;;;;;5039078;28;20017;-65
2023/06/17 03:07:40;;;;;;;2.13;1.50;;;26.10;40.80;;;;;;5035299;28;20103;-65
2023/06/17 03:10:07;;;;;;;1.80;1.35;;;26.10;40.80;;;;;;5039250;28;20436;-66
2023/06/17 03:12:33;;;;;;;1.85;1.42;;;26.10;40.90;;;;;;5037818;28;20352;-66
2023/06/17 03:14:58;;;;;;;2.03;1.45;;;26.10;40.90;;;;;;5035387;28;20021;-65
2023/06/17 03:17:24;;;;;;;1.80;1.40;;;26.10;40.90;;;;;;5038712;28;20041;-65
2023/06/17 03:19:51;;;;;;;2.03;1.40;;;26.10;40.90;;;;;;5036561;28;20014;-65
2023/06/17 03:22:16;;;;;;;1.45;1.20;;;26.00;40.90;;;;;;5035654;28;20066;-66
2023/06/17 03:24:42;;;;;;;1.92;1.48;;;26.00;40.90;;;;;;5037382;28;20152;-66
2023/06/17 03:27:08;;;;;;;1.75;1.30;;;26.00;40.90;;;;;;5036743;28;20587;-65
2023/06/17 03:29:36;;;;;;;1.67;1.20;;;26.00;40.90;;;;;;5035605;28;20040;-66
2023/06/17 03:32:02;;;;;;;2.10;1.50;;;26.00;41.00;;;;;;5039648;28;20071;-66
2023/06/17 03:34:27;;;;;;;2.00;1.48;;;25.90;40.90;;;;;;5038239;28;20468;-66
2023/06/17 03:36:53;;;;;;;2.25;1.50;;;25.90;40.90;;;;;;5035081;28;20025;-66
2023/06/17 03:39:19;;;;;;;2.70;1.27;;;26.00;41.00;;;;;;5021316;28;20056;-66
2023/06/17 03:41:45;;;;;;;1.95;1.30;;;25.90;41.00;;;;;;5034531;28;20028;-66
2023/06/17 03:44:10;;;;;;;1.83;1.20;;;25.90;41.00;;;;;;5034492;28;20029;-66
2023/06/17 03:46:36;;;;;;;1.90;1.50;;;25.90;41.00;;;;;;5037017;28;20138;-65
2023/06/17 03:49:02;;;;;;;2.70;1.50;;;25.90;41.00;;;;;;5037208;28;20037;-66
2023/06/17 03:51:28;;;;;;;1.70;1.40;;;25.90;41.00;;;;;;5035052;28;20049;-65
2023/06/17 03:53:53;;;;;;;1.92;1.52;;;25.80;40.90;;;;;;5034950;28;20029;-66
2023/06/17 03:56:19;;;;;;;2.13;1.48;;;25.80;41.00;;;;;;5019345;28;20054;-65
2023/06/17 03:58:45;;;;;;;1.63;1.20;;;25.80;41.00;;;;;;5038609;28;20026;-65
2023/06/17 04:01:12;;;;;;;1.67;1.35;;;25.80;41.00;;;;;;5036797;28;20057;-66
2023/06/17 04:03:40;;;;;;;1.90;1.40;;;25.80;41.00;;;;;;5037434;28;20029;-65
2023/06/17 04:06:06;;;;;;;1.40;1.20;;;25.80;41.00;;;;;;5034449;28;20025;-66
2023/06/17 04:08:36;;;;;;;1.80;1.40;;;25.80;41.10;;;;;;5031855;28;20468;-66
2023/06/17 04:11:02;;;;;;;2.17;1.40;;;25.80;41.10;;;;;;5037410;28;20060;-66
2023/06/17 04:13:28;;;;;;;1.85;1.30;;;25.70;41.00;;;;;;5036874;28;20179;-66
2023/06/17 04:15:54;;;;;;;1.67;1.33;;;25.70;41.00;;;;;;5030422;28;20194;-65
2023/06/17 04:18:20;;;;;;;1.75;1.33;;;25.70;41.10;;;;;;5032103;28;20497;-66
2023/06/17 04:20:45;;;;;;;1.77;1.10;;;25.70;41.10;;;;;;5034871;28;20032;-66
2023/06/17 04:23:11;;;;;;;1.70;1.20;;;25.70;41.10;;;;;;5016274;28;20052;-66
2023/06/17 04:25:37;;;;;;;1.85;1.30;;;25.70;41.10;;;;;;5039963;28;20070;-65
2023/06/17 04:28:07;;;;;;;1.85;1.20;;;25.60;41.00;;;;;;5035991;28;20061;-66
2023/06/17 04:30:33;;;;;;;1.88;1.30;;;25.70;41.10;;;;;;5033156;28;20078;-66
2023/06/17 04:33:00;;;;;;;1.77;1.20;;;25.60;41.10;;;;;;5035013;28;20096;-66
2023/06/17 04:35:26;;;;;;;1.55;1.25;;;25.60;41.10;;;;;;5037075;28;20457;-66
2023/06/17 04:37:55;;;;;;;1.90;1.40;;;25.60;41.10;;;;;;5033140;28;20032;-66
2023/06/17 04:40:25;;;;;;;2.00;1.40;;;25.60;41.10;;;;;;5037829;28;20098;-66
2023/06/17 04:42:51;;;;;;;2.20;1.40;;;25.60;41.20;;;;;;5033775;28;20029;-65
2023/06/17 04:45:17;;;;;;;1.70;1.42;;;25.60;41.10;;;;;;5033622;28;20055;-66
2023/06/17 04:47:45;;;;;;;1.92;1.50;;;25.60;41.10;;;;;;5038403;28;20082;-66
2023/06/17 04:50:12;;;;;;;1.77;1.20;;;25.60;41.10;;;;;;5036425;28;20033;-66
2023/06/17 04:52:42;;;;;;;1.45;1.15;;;25.60;41.10;;;;;;5034770;28;20098;-66
2023/06/17 04:55:11;;;;;;;1.30;1.08;;;25.50;41.10;;;;;;5036882;28;20492;-66
2023/06/17 04:57:36;;;;;;;1.70;1.30;;;25.60;41.20;;;;;;5030665;28;20127;-66
2023/06/17 05:00:05;;;;;;;1.45;1.20;;;25.50;41.10;;;;;;5031617;28;20061;-66
2023/06/17 05:02:30;;;;;;;1.80;1.40;;;25.50;41.10;;;;;;5035613;28;20017;-65
2023/06/17 05:04:56;;;;;;;1.75;1.27;;;25.50;41.10;;;;;;5029489;28;20084;-66
2023/06/17 05:07:22;;;;;;;1.70;1.27;;;25.50;41.20;;;;;;5035644;28;20037;-66
2023/06/17 05:09:47;;;;;;;1.98;1.38;;;25.50;41.20;;;;;;5035380;28;20482;-66
2023/06/17 05:12:13;;;;;;;1.85;1.20;;;25.40;41.10;;;;;;5034806;28;20466;-66
2023/06/17 05:14:39;;;;;;;1.60;1.27;;;25.50;41.20;;;;;;5034388;28;20025;-66
2023/06/17 05:17:04;;;;;;;1.83;1.40;;;25.50;41.20;;;;;;5030738;28;20021;-66
2023/06/17 05:19:30;;;;;;;2.00;1.40;;;25.40;41.10;;;;;;5036330;28;20055;-66
2023/06/17 05:21:56;;;;;;;1.95;1.38;;;25.40;41.10;;;;;;5035743;28;20068;-66
2023/06/17 05:24:21;;;;;;;1.80;1.38;;;25.50;41.20;;;;;;5033681;28;20426;-66
2023/06/17 05:26:47;;;;;;;2.03;1.20;;;25.40;41.10;;;;;;5034486;28;20025;-66
2023/06/17 05:29:12;;;;;;;2.10;1.50;;;25.40;41.10;;;;;;5035599;28;20036;-66
2023/06/17 05:31:38;;;;;;;1.50;1.17;;;25.50;41.10;;;;;;5034089;28;20045;-67
2023/06/17 05:34:04;;;;;;;2.35;1.30;;;25.50;41.10;;;;;;5037339;28;20033;-66
2023/06/17 05:36:29;;;;;;;1.83;1.25;;;25.40;41.10;;;;;;5039219;28;20034;-65
2023/06/17 05:38:55;;;;;;;1.90;1.30;;;25.40;41.10;;;;;;5038228;28;20456;-66
2023/06/17 05:41:21;;;;;;;1.70;1.30;;;25.40;41.10;;;;;;5034604;28;20500;-66
2023/06/17 05:43:48;;;;;;;1.77;1.30;;;25.40;41.10;;;;;;5038331;28;20025;-65
2023/06/17 05:46:14;;;;;;;2.00;1.33;;;25.40;41.10;;;;;;5039255;28;20035;-66
2023/06/17 05:48:39;;;;;;;2.08;1.40;;;25.40;41.10;;;;;;5038440;28;20037;-66
2023/06/17 05:51:05;;;;;;;1.60;1.27;;;25.40;41.10;;;;;;5039316;28;20933;-66
2023/06/17 05:53:31;;;;;;;1.85;1.50;;;25.40;41.10;;;;;;5035411;28;20033;-65
2023/06/17 05:55:56;;;;;;;1.90;1.50;;;25.40;41.10;;;;;;5035621;28;20021;-66
2023/06/17 05:58:22;;;;;;;1.60;1.40;;;25.40;41.10;;;;;;5037837;28;20361;-66
2023/06/17 06:00:47;;;;;;;1.73;1.30;;;25.40;41.10;;;;;;5039207;28;20024;-66
2023/06/17 06:03:13;;;;;;;2.13;1.52;;;25.40;41.10;;;;;;5042537;28;20437;-65
2023/06/17 06:05:39;;;;;;;1.98;1.40;;;25.40;41.10;;;;;;5038309;28;20030;-65
2023/06/17 06:08:04;;;;;;;1.58;1.30;;;25.40;41.20;;;;;;5037423;28;20390;-66
2023/06/17 06:10:30;;;;;;;1.83;1.40;;;25.30;41.10;;;;;;5040685;28;20065;-65
2023/06/17 06:12:56;;;;;;;1.90;1.42;;;25.30;41.10;;;;;;5040132;28;20557;-65
2023/06/17 06:15:22;;;;;;;2.30;1.52;;;25.30;41.10;;;;;;5041403;28;20415;-66
2023/06/17 06:17:47;;;;;;;2.20;1.52;;;25.30;41.20;;;;;;5043842;28;20384;-66
2023/06/17 06:20:13;;;;;;;1.90;1.40;;;25.30;41.10;;;;;;5038871;28;20030;-65
2023/06/17 06:22:39;;;;;;;1.90;1.35;;;25.30;41.10;;;;;;5040608;28;20512;-66
2023/06/17 06:25:05;;;;;;;2.42;1.60;;;25.30;41.10;;;;;;5038674;28;20025;-66
2023/06/17 06:27:31;;;;;;;2.72;1.50;;;25.30;41.20;;;;;;5038936;28;20017;-65
2023/06/17 06:29:57;;;;;;;2.00;1.50;;;25.30;41.20;;;;;;5038624;28;20071;-66
2023/06/17 06:32:22;;;;;;;2.47;1.70;;;25.30;41.20;;;;;;5037375;28;20040;-65
2023/06/17 06:34:48;;;;;;;2.20;1.63;;;25.20;41.20;;;;;;5037732;28;20037;-66
2023/06/17 06:37:13;;;;;;;2.08;1.60;;;25.30;41.20;;;;;;5023476;28;20049;-66
2023/06/17 06:39:39;;;;;;;2.03;1.52;;;25.20;41.20;;;;;;5038052;28;20029;-65
2023/06/17 06:42:05;;;;;;;2.03;1.45;;;25.20;41.20;;;;;;5035393;28;20079;-65
2023/06/17 06:44:31;;;;;;;2.15;1.70;;;25.20;41.20;;;;;;5036925;28;20524;-66
2023/06/17 06:46:57;;;;;;;2.20;1.70;;;25.20;41.20;;;;;;5038405;28;20029;-65
2023/06/17 06:49:23;;;;;;;2.00;1.50;;;25.20;41.20;;;;;;5037108;28;20033;-66
2023/06/17 06:51:48;;;;;;;1.63;1.40;;;25.20;41.20;;;;;;5036707;28;20469;-66
2023/06/17 06:54:14;;;;;;;2.13;1.58;;;25.20;41.30;;;;;;5002321;28;20051;-65
2023/06/17 06:56:39;;;;;;;2.05;1.58;;;25.20;41.30;;;;;;5037984;28;20116;-65
2023/06/17 06:59:05;;;;;;;2.33;1.52;;;25.10;41.20;;;;;;5038695;28;20033;-66
2023/06/17 07:01:31;;;;;;;2.17;1.50;;;25.20;41.30;;;;;;5035483;28;20119;-65
2023/06/17 07:03:56;;;;;;;1.95;1.52;;;25.20;41.30;;;;;;5036808;28;20036;-66
2023/06/17 07:06:22;;;;;;;2.15;1.58;;;25.20;41.30;;;;;;5034890;28;20159;-65
2023/06/17 07:08:47;;;;;;;2.13;1.60;;;25.10;41.30;;;;;;5031938;28;20778;-66
2023/06/17 07:11:13;;;;;;;1.88;1.50;;;25.10;41.30;;;;;;5038231;28;20037;-65
2023/06/17 07:13:38;;;;;;;2.33;1.65;;;25.10;41.40;;;;;;5039240;28;20025;-65
2023/06/17 07:16:04;;;;;;;2.40;1.70;;;25.10;41.40;;;;;;5038610;28;20037;-66
2023/06/17 07:18:30;;;;;;;2.58;1.90;;;25.10;41.40;;;;;;5033258;28;20470;-66
2023/06/17 07:20:56;;;;;;;2.30;1.70;;;25.10;41.50;;;;;;5032296;28;20099;-65
2023/06/17 07:23:23;;;;;;;1.90;1.50;;;25.10;41.50;;;;;;5018417;28;20033;-66
2023/06/17 07:25:49;;;;;;;1.92;1.45;;;25.10;41.50;;;;;;5034878;28;20508;-65
2023/06/17 07:28:15;;;;;;;2.35;1.60;;;25.10;41.50;;;;;;5038807;28;20029;-64
2023/06/17 07:30:41;;;;;;;2.20;1.50;;;25.10;41.50;;;;;;5036941;28;20120;-65
2023/06/17 07:33:07;;;;;;;1.95;1.63;;;25.10;41.50;;;;;;5039050;28;20458;-65
2023/06/17 07:35:32;;;;;;;2.17;1.58;;;25.10;41.50;;;;;;5036277;28;20076;-65
2023/06/17 07:37:58;;;;;;;2.00;1.40;;;25.10;41.60;;;;;;5036984;28;20029;-65
2023/06/17 07:40:24;;;;;;;1.88;1.48;;;25.10;41.60;;;;;;5015080;28;20025;-65
2023/06/17 07:42:49;;;;;;;2.30;1.73;;;25.10;41.60;;;;;;5036161;28;20025;-66
2023/06/17 07:45:15;;;;;;;2.20;1.65;;;25.00;41.50;;;;;;5035612;28;20400;-66
2023/06/17 07:47:41;;;;;;;2.22;1.65;;;25.00;41.50;;;;;;5035202;28;20398;-66
2023/06/17 07:50:10;;;;;;;2.22;1.70;;;25.10;41.60;;;;;;5032138;28;20335;-66
2023/06/17 07:52:36;;;;;;;2.25;1.65;;;25.00;41.60;;;;;;5019706;28;20030;-66
2023/06/17 07:55:03;;;;;;;2.03;1.58;;;25.00;41.60;;;;;;5036228;28;20049;-65
2023/06/17 07:57:28;;;;;;;2.70;1.80;;;25.00;41.60;;;;;;5034754;28;20033;-66
2023/06/17 07:59:54;;;;;;;2.17;1.60;;;25.00;41.60;;;;;;5034822;28;20040;-65
2023/06/17 08:02:21;;;;;;;2.25;1.65;;;25.00;41.60;;;;;;5035573;28;20021;-65
2023/06/17 08:04:47;;;;;;;2.83;1.63;;;25.00;41.70;;;;;;5021770;28;20086;-66
2023/06/17 08:07:13;;;;;;;2.10;1.60;;;25.00;41.70;;;;;;5035744;28;20113;-65
2023/06/17 08:09:38;;;;;;;2.45;1.77;;;25.00;41.70;;;;;;5036286;28;20108;-65
2023/06/17 08:12:05;;;;;;;2.38;1.75;;;25.00;41.70;;;;;;5035621;28;20045;-65
2023/06/17 08:14:30;;;;;;;2.30;1.73;;;25.00;41.70;;;;;;5033976;28;20048;-65
2023/06/17 08:16:56;;;;;;;1.83;1.50;;;25.00;41.70;;;;;;5035167;28;20592;-65
2023/06/17 08:19:22;;;;;;;2.75;1.85;;;25.00;41.70;;;;;;5035156;28;20435;-65
2023/06/17 08:21:49;;;;;;;1.98;1.55;;;25.00;41.80;;;;;;5037999;28;20021;-65
2023/06/17 08:24:21;;;;;;;2.20;1.80;;;25.00;41.80;;;;;;5036003;28;20049;-66
2023/06/17 08:26:47;;;;;;;2.45;1.70;;;24.90;41.80;;;;;;5016439;28;20387;-65
2023/06/17 08:29:15;;;;;;;1.92;1.50;;;24.90;41.80;;;;;;5033128;28;20052;-65
2023/06/17 08:31:45;;;;;;;2.63;1.83;;;24.90;41.80;;;;;;5034649;28;20043;-65
2023/06/17 08:34:11;;;;;;;2.65;1.60;;;24.90;41.80;;;;;;5037416;28;20028;-66
2023/06/17 08:36:42;;;;;;;2.28;1.70;;;24.90;41.80;;;;;;5036335;28;20895;-66
2023/06/17 08:39:08;;;;;;;2.53;1.67;;;24.90;41.80;;;;;;5033064;28;20452;-66
2023/06/17 08:41:40;;;;;;;2.17;1.70;;;24.90;41.90;;;;;;5035382;28;20113;-66
2023/06/17 08:44:09;;;;;;;2.88;1.95;;;24.90;41.90;;;;;;5015628;28;20029;-65
2023/06/17 08:46:36;;;;;;;2.38;1.75;;;24.90;41.90;;;;;;5019432;28;20083;-65
2023/06/17 08:49:02;;;;;;;2.20;1.70;;;24.90;41.90;;;;;;5036421;28;20120;-64
2023/06/17 08:51:29;;;;;;;2.10;1.60;;;24.90;41.90;;;;;;5032500;28;20108;-65
2023/06/17 08:53:55;;;;;;;2.20;1.67;;;24.90;41.90;;;;;;5034300;28;20052;-65
2023/06/17 08:56:21;;;;;;;2.00;1.50;;;24.90;41.90;;;;;;5034763;28;20124;-65
2023/06/17 08:58:49;;;;;;;2.80;1.65;;;24.90;42.00;;;;;;5032168;28;20367;-65
2023/06/17 09:01:16;;;;;;;2.55;1.70;;;24.90;41.90;;;;;;5039194;28;20484;-66
2023/06/17 09:03:42;;;;;;;2.20;1.70;;;24.90;41.90;;;;;;5014915;28;20025;-65
2023/06/17 09:06:20;;;;;;;2.40;1.80;;;24.90;42.00;;;;;;5033720;28;20078;-65
2023/06/17 09:08:47;;;;;;;1.90;1.52;;;24.90;42.00;;;;;;5034218;28;20032;-65
2023/06/17 09:11:13;;;;;;;2.30;1.75;;;24.90;42.00;;;;;;5032110;28;20036;-65
2023/06/17 09:13:38;;;;;;;2.15;1.63;;;24.90;42.00;;;;;;5035996;28;20036;-65
2023/06/17 09:16:04;;;;;;;2.10;1.60;;;24.90;42.00;;;;;;5036160;28;20492;-66
2023/06/17 09:18:34;;;;;;;2.00;1.50;;;24.80;41.90;;;;;;5036771;28;20038;-66
2023/06/17 09:21:02;;;;;;;2.17;1.70;;;24.90;42.00;;;;;;5035287;28;20469;-66
2023/06/17 09:23:28;;;;;;;2.28;1.60;;;24.80;41.90;;;;;;5034808;28;20485;-66
2023/06/17 09:26:04;;;;;;;2.47;1.70;;;24.80;42.00;;;;;;5030633;28;20534;-65
2023/06/17 09:28:32;;;;;;;2.00;1.58;;;24.80;42.00;;;;;;5037016;28;20105;-66
2023/06/17 09:31:03;;;;;;;2.10;1.70;;;24.80;42.00;;;;;;5034095;28;20421;-65
2023/06/17 09:33:29;;;;;;;2.10;1.50;;;24.80;42.00;;;;;;5034393;28;20268;-66
2023/06/17 09:36:05;;;;;;;2.50;1.70;;;24.80;42.00;;;;;;5033262;28;20030;-66
2023/06/17 09:38:31;;;;;;;2.10;1.70;;;24.80;42.00;;;;;;5032380;28;20496;-66
2023/06/17 09:41:00;;;;;;;2.13;1.58;;;24.80;42.00;;;;;;5031717;28;20065;-66
2023/06/17 09:43:27;;;;;;;1.90;1.50;;;24.80;42.00;;;;;;5035500;28;20021;-66
2023/06/17 09:45:59;;;;;;;2.17;1.63;;;24.80;42.00;;;;;;5033254;28;20041;-66
2023/06/17 09:48:32;;;;;;;2.08;1.50;;;24.80;42.30;;;;;;5015192;28;20060;-67
2023/06/17 09:50:58;;;;;;;2.33;1.70;;;24.80;42.00;;;;;;5034765;28;20037;-66
2023/06/17 09:53:29;;;;;;;2.80;1.70;;;24.80;42.00;;;;;;5036156;28;20025;-67
2023/06/17 09:55:58;;;;;;;1.98;1.70;;;24.80;42.00;;;;;;5031448;28;20029;-67
2023/06/17 09:58:31;;;;;;;2.67;1.77;;;24.80;42.00;;;;;;5035266;28;20838;-66
2023/06/17 10:01:00;;;;;;;2.45;1.70;;;24.80;42.00;;;;;;5032469;28;20018;-66
2023/06/17 10:03:26;;;;;;;2.30;1.80;;;24.80;42.00;;;;;;5034574;28;20135;-66
2023/06/17 10:06:01;;;;;;;2.00;1.50;;;24.90;42.10;;;;;;5032699;28;20520;-67
2023/06/17 10:08:28;;;;;;;2.45;1.80;;;24.80;42.00;;;;;;5034071;28;20453;-66
2023/06/17 10:10:57;;;;;;;2.17;1.70;;;24.80;42.00;;;;;;5036122;28;20940;-66
2023/06/17 10:13:25;;;;;;;2.22;1.70;;;24.80;42.00;;;;;;5036477;28;20727;-66
2023/06/17 10:15:53;;;;;;;1.98;1.65;;;24.80;42.50;;;;;;5036230;28;20040;-67
2023/06/17 10:18:20;;;;;;;2.10;1.60;;;24.80;42.00;;;;;;5032667;28;20369;-66
2023/06/17 10:20:48;;;;;;;2.13;1.60;;;24.80;42.00;;;;;;5036842;28;20473;-66
2023/06/17 10:23:15;;;;;;;2.40;1.80;;;24.80;41.90;;;;;;5037857;28;20028;-67
2023/06/17 10:25:41;;;;;;;2.20;1.60;;;24.80;41.90;;;;;;5037246;28;20021;-66
2023/06/17 10:28:07;;;;;;;2.63;1.90;;;24.80;41.90;;;;;;5036060;28;20029;-66
2023/06/17 10:30:34;;;;;;;2.47;1.88;;;24.80;41.90;;;;;;5038681;28;20041;-66
2023/06/17 10:33:01;;;;;;;2.85;1.80;;;24.80;41.90;;;;;;5036260;28;20403;-66
2023/06/17 10:35:45;;;;;;;2.53;1.80;;;24.80;41.90;;;;;;5036932;28;20025;-66
2023/06/17 10:38:27;;;;;;;2.63;1.60;;;24.80;41.90;;;;;;5032264;28;20393;-66
2023/06/17 10:40:53;;;;;;;2.30;1.90;;;24.80;41.90;;;;;;5034876;28;20032;-67
2023/06/17 10:43:20;;;;;;;3.00;1.80;;;24.80;42.00;;;;;;5038522;28;20026;-67
2023/06/17 10:45:53;;;;;;;3.08;1.80;;;24.80;42.10;;;;;;5036340;28;20099;-63
2023/06/17 10:48:20;;;;;;;2.72;1.70;;;24.80;42.20;;;;;;5036797;28;20060;-66
2023/06/17 10:51:10;;;;;;;2.90;1.92;;;24.80;42.30;;;;;;5024671;28;20025;-66
2023/06/17 10:53:37;;;;;;;2.22;1.80;;;24.80;42.20;;;;;;5035834;28;20092;-66
2023/06/17 10:56:06;;;;;;;2.30;1.70;;;24.80;42.10;;;;;;5037874;28;20504;-67
2023/06/17 10:58:46;;;;;;;2.17;1.80;;;24.80;42.10;;;;;;5036259;28;20366;-67
2023/06/17 11:01:12;;;;;;;2.70;1.70;;;24.80;42.20;;;;;;5018001;28;20079;-66
2023/06/17 11:03:38;;;;;;;2.75;2.17;;;24.80;42.20;;;;;;5037465;28;20030;-68
2023/06/17 11:06:06;;;;;;;2.78;1.80;;;24.80;42.20;;;;;;5037675;28;20037;-67
2023/06/17 11:08:34;;;;;;;2.95;1.98;;;24.80;42.20;;;;;;5039307;28;20044;-67
2023/06/17 11:11:07;;;;;;;2.30;1.80;;;24.80;42.20;;;;;;5035467;28;20456;-67
2023/06/17 11:13:32;;;;;;;2.53;1.83;;;24.80;42.20;;;;;;5036115;28;20068;-67
2023/06/17 11:15:58;;;;;;;2.10;1.70;;;24.80;42.20;;;;;;5034540;28;20053;-67
2023/06/17 11:18:23;;;;;;;2.33;1.60;;;24.90;42.20;;;;;;5030888;28;20033;-67
2023/06/17 11:20:49;;;;;;;2.55;1.88;;;24.80;42.10;;;;;;5037610;28;20023;-67
2023/06/17 11:23:16;;;;;;;2.78;1.77;;;24.90;42.20;;;;;;5036305;28;20068;-67
2023/06/17 11:25:41;;;;;;;2.75;1.80;;;24.80;42.10;;;;;;5033553;28;20075;-67
2023/06/17 11:28:07;;;;;;;2.90;1.92;;;24.90;42.10;;;;;;5034195;28;20033;-68
2023/06/17 11:30:33;;;;;;;2.35;1.75;;;24.90;42.20;;;;;;5035542;28;20039;-67
2023/06/17 11:32:59;;;;;;;2.20;1.60;;;24.90;42.20;;;;;;5038363;28;20029;-67
2023/06/17 11:35:25;;;;;;;2.40;1.70;;;24.90;42.20;;;;;;5036471;28;20083;-67
2023/06/17 11:37:51;;;;;;;2.30;1.80;;;24.80;42.10;;;;;;5035939;28;20126;-66
2023/06/17 11:40:18;;;;;;;2.35;1.80;;;24.90;42.20;;;;;;5038129;28;20029;-67
2023/06/17 11:42:45;;;;;;;2.20;1.67;;;24.90;42.20;;;;;;5030493;28;20022;-67
2023/06/17 11:45:11;;;;;;;3.22;1.90;;;24.90;42.20;;;;;;5034794;28;20033;-67
2023/06/17 11:47:36;;;;;;;2.30;1.80;;;24.90;42.20;;;;;;5036517;28;20055;-67
2023/06/17 11:50:06;;;;;;;2.92;2.03;;;24.90;42.20;;;;;;5035229;28;20504;-67
2023/06/17 11:52:32;;;;;;;;;;;24.90;42.20;;;;;;5019896;28;20083;-67
2023/06/17 11:54:59;;;;;;;3.00;1.77;;;24.90;42.20;;;;;;5035350;28;19979;-67
2023/06/17 11:57:26;;;;;;;3.35;1.70;;;24.90;42.10;;;;;;5037686;28;20060;-64
2023/06/17 11:59:57;;;;;;;2.40;1.90;;;24.90;42.10;;;;;;5034545;28;20022;-65
2023/06/17 12:02:26;;;;;;;2.50;2.00;;;24.90;42.20;;;;;;5032653;28;20034;-65
2023/06/17 12:04:52;;;;;;;;;;;24.90;42.20;;;;;;5036768;28;20509;-65
2023/06/17 12:07:17;;;;;;;3.15;2.45;;;25.00;42.10;;;;;;5019907;28;19909;-65
2023/06/17 12:09:53;;;;;;;2.90;2.10;;;25.00;42.00;;;;;;5035307;28;20174;-64
2023/06/17 12:12:46;;;;;;;2.42;1.98;;;25.00;41.90;;;;;;5031115;28;20769;-65
2023/06/17 12:15:12;;;;;;;2.42;1.88;;;25.10;41.90;;;;;;5030860;28;20511;-65
2023/06/17 12:17:41;;;;;;;4.50;2.10;;;25.10;41.90;;;;;;5035924;28;20024;-64
2023/06/17 12:20:13;;;;;;;2.80;2.30;;;25.10;41.90;;;;;;5034875;28;20422;-64
2023/06/17 12:22:39;;;;;;;2.85;2.00;;;25.10;42.00;;;;;;5031899;28;20078;-64
2023/06/17 12:25:05;;;;;;;2.25;1.88;;;25.20;41.90;;;;;;5033066;28;20045;-65
2023/06/17 12:27:31;;;;;;;2.42;2.00;;;25.20;41.90;;;;;;5034094;28;20481;-65
2023/06/17 12:30:00;;;;;;;2.90;2.20;;;25.20;41.90;;;;;;5017322;28;20604;-66
2023/06/17 12:32:27;;;;;;;2.67;1.90;;;25.20;41.80;;;;;;5019412;28;20091;-67
2023/06/17 12:34:52;;;;;;;2.50;2.10;;;25.30;41.80;;;;;;5034262;28;20029;-67
2023/06/17 12:37:21;;;;;;;2.40;2.10;;;25.30;41.80;;;;;;5036429;28;20080;-66
2023/06/17 12:39:48;;;;;;;3.10;2.10;;;25.30;41.70;;;;;;5033730;28;20049;-67
2023/06/17 12:42:14;;;;;;;2.53;2.00;;;25.40;41.80;;;;;;5031496;28;20437;-67
2023/06/17 12:44:39;;;;;;;2.95;2.13;;;25.40;41.70;;;;;;5034851;28;20123;-66
2023/06/17 12:47:05;;;;;;;3.13;2.15;;;25.40;41.60;;;;;;5030992;28;20105;-66